Portada
METAR-TAF:

METAR-TAF

Aeropuertos :

Aeropuerto de Logroño-Agoncillo

Logroño, España

latitud: 42-27N, longitud: 002-20W, altitud: 353 m

Observación

El informe se hizo hace 16 minutos, a las 15:00 UTC
Viento 7 kt del oeste-noroeste, variando entre oeste y norte
Temperatura 28°C
Humedad 37%
Presión 1020 hPa
Visibilidad 10 km o más
sin nubes por debajo de 1500 m y sin presencia de cumulonimbus.

METAR: LELO 211500Z 30007KT 260V350 CAVOK 28/12 Q1020

Hora: 17:16 (15:16 UTC)

Pronóstico

El informe se hizo hace 1 hora y 16 minutos, a las 14:00 UTC
Pronóstico válido del 21 a las 15 UTC al 21 a las 24 UTC
Viento 7 kt del norte-noroeste
Visibilidad 10 km o más
sin nubes por debajo de 1500 m y sin presencia de cumulonimbus.

TAF: LELO 211400Z 2115/2124 34007KT CAVOK

Observaciones y pronósticos meteorológicos de más de 4000 aeropuertos (mensajes METAR y TAF).

Los puntos amarillos y rojos representan las estaciones disponibles.

Ponga el ratón en el punto deseado para ver el nombre de la estación.

Haga clic para ver las observaciones y los pronósticos meteorológicos.

Para cambiar el mapa : haga clic en los botones verdes con una cruz de color negro para hacer un zoom, en el botón verde con un guión para alejar o en las flechas verdes para mapas adyacentes.


METAR-TAF: